createdAt,value
2017-09-26T00:00:14.778Z,97360.25
2017-09-26T00:02:42.394Z,97356.47
2017-09-26T00:05:09.966Z,97358.22
2017-09-26T00:07:37.562Z,97354.80
2017-09-26T00:10:06.621Z,97352.58
2017-09-26T00:12:34.224Z,97353.36
2017-09-26T00:15:02.181Z,97352.45
2017-09-26T00:17:29.763Z,97348.60
2017-09-26T00:19:57.335Z,97354.07
2017-09-26T00:22:25.294Z,97349.41
2017-09-26T00:24:54.197Z,97354.43
2017-09-26T00:27:23.170Z,97353.52
2017-09-26T00:29:50.756Z,97354.31
2017-09-26T00:32:18.869Z,97352.94
2017-09-26T00:34:47.509Z,97360.92
2017-09-26T00:37:16.378Z,97351.95
2017-09-26T00:39:45.294Z,97353.14
2017-09-26T00:42:12.872Z,97352.28
2017-09-26T00:44:41.612Z,97353.52
2017-09-26T00:47:09.193Z,97348.83
2017-09-26T00:49:37.190Z,97348.80
2017-09-26T00:52:04.794Z,97351.31
2017-09-26T00:54:33.087Z,97349.97
2017-09-26T00:57:00.685Z,97355.44
2017-09-26T00:59:29.449Z,97357.89
2017-09-26T01:01:59.898Z,97354.09
2017-09-26T01:04:28.117Z,97350.27
2017-09-26T01:06:58.408Z,97351.08
2017-09-26T01:09:28.845Z,97355.25
2017-09-26T01:11:57.633Z,97355.66
2017-09-26T01:14:25.991Z,97359.83
2017-09-26T01:16:53.553Z,97350.53
2017-09-26T01:19:21.128Z,97357.73
2017-09-26T01:21:50.107Z,97363.17
2017-09-26T01:24:17.745Z,97356.78
2017-09-26T01:26:45.690Z,97359.28
2017-09-26T01:29:15.041Z,97361.77
2017-09-26T01:31:44.446Z,97366.34
2017-09-26T01:34:12.914Z,97365.88
2017-09-26T01:36:41.918Z,97362.46
2017-09-26T01:39:09.482Z,97364.97
2017-09-26T01:41:37.097Z,97364.48
2017-09-26T01:44:06.033Z,97368.62
2017-09-26T01:46:33.983Z,97372.79
2017-09-26T01:49:01.558Z,97374.03
2017-09-26T01:51:30.561Z,97376.91
2017-09-26T01:53:58.161Z,97385.53
2017-09-26T01:56:25.736Z,97383.77
2017-09-26T01:58:55.871Z,97384.58
2017-09-26T02:01:23.995Z,97394.11
2017-09-26T02:03:51.577Z,97392.81
2017-09-26T02:06:21.483Z,97394.88
2017-09-26T02:08:51.579Z,97392.29
2017-09-26T02:11:22.410Z,97396.14
2017-09-26T02:13:50.006Z,97386.00
2017-09-26T02:16:17.563Z,97395.34
2017-09-26T02:18:48.103Z,97394.48
2017-09-26T02:21:15.730Z,97396.55
2017-09-26T02:23:43.284Z,97399.54
2017-09-26T02:26:10.921Z,97394.08
2017-09-26T02:28:38.789Z,97391.58
2017-09-26T02:31:07.044Z,97392.38
2017-09-26T02:33:34.610Z,97387.75
2017-09-26T02:36:02.184Z,97385.16
2017-09-26T02:38:30.992Z,97396.14
2017-09-26T02:40:59.434Z,97393.22
2017-09-26T02:43:27.678Z,97386.83
2017-09-26T02:45:55.386Z,97396.14
2017-09-26T02:48:26.049Z,97388.95
2017-09-26T02:50:54.030Z,97394.82
2017-09-26T02:53:21.632Z,97395.63
2017-09-26T02:55:49.591Z,97389.64
2017-09-26T02:58:18.536Z,97392.11
2017-09-26T03:00:46.249Z,97392.88
2017-09-26T03:03:14.210Z,97396.23
2017-09-26T03:05:41.770Z,97392.01
2017-09-26T03:08:09.817Z,97395.84
2017-09-26T03:10:37.407Z,97389.58
2017-09-26T03:13:04.995Z,97395.44
2017-09-26T03:15:32.583Z,97393.58
2017-09-26T03:18:03.713Z,97400.64
2017-09-26T03:20:31.577Z,97393.42
2017-09-26T03:22:59.257Z,97395.86
2017-09-26T03:25:27.163Z,97392.43
2017-09-26T03:27:55.171Z,97398.32
2017-09-26T03:30:22.753Z,97393.20
2017-09-26T03:32:50.782Z,97394.49
2017-09-26T03:35:18.301Z,97395.39
2017-09-26T03:37:50.509Z,97398.35
2017-09-26T03:40:20.200Z,97395.83
2017-09-26T03:42:47.860Z,97405.94
2017-09-26T03:45:15.427Z,97405.11
2017-09-26T03:47:43.034Z,97403.84
2017-09-26T03:50:10.952Z,97411.80
2017-09-26T03:52:38.570Z,97413.39
2017-09-26T03:55:06.128Z,97412.92
2017-09-26T03:57:37.583Z,97414.09
2017-09-26T04:00:05.597Z,97410.73
2017-09-26T04:02:33.550Z,97409.83
2017-09-26T04:05:01.242Z,97405.24
2017-09-26T04:07:28.801Z,97409.10
2017-09-26T04:09:58.094Z,97415.45
2017-09-26T04:12:25.726Z,97414.98
2017-09-26T04:14:53.310Z,97423.47
2017-09-26T04:17:21.304Z,97423.13
2017-09-26T04:19:48.880Z,97422.26
2017-09-26T04:22:16.477Z,97422.19
2017-09-26T04:24:44.791Z,97431.03
2017-09-26T04:27:12.799Z,97422.81
2017-09-26T04:29:41.706Z,97426.92
2017-09-26T04:32:10.744Z,97426.53
2017-09-26T04:34:38.315Z,97425.59
2017-09-26T04:37:06.598Z,97421.70
2017-09-26T04:39:34.188Z,97423.83
2017-09-26T04:42:02.582Z,97429.45
2017-09-26T04:44:31.551Z,97425.80
2017-09-26T04:46:59.295Z,97428.84
2017-09-26T04:49:27.081Z,97429.27
2017-09-26T04:51:54.665Z,97428.58
2017-09-26T04:54:22.682Z,97429.73
2017-09-26T04:56:50.640Z,97430.20
2017-09-26T04:59:18.527Z,97434.03
2017-09-26T05:01:46.083Z,97429.23
2017-09-26T05:04:13.656Z,97429.95
2017-09-26T05:06:41.859Z,97425.20
2017-09-26T05:09:09.419Z,97427.72
2017-09-26T05:11:37.446Z,97433.82
2017-09-26T05:14:05.058Z,97442.77
2017-09-26T05:16:32.629Z,97448.22
2017-09-26T05:19:00.220Z,97448.00
2017-09-26T05:21:30.775Z,97443.45
2017-09-26T05:23:58.360Z,97444.58
2017-09-26T05:26:25.929Z,97450.09
2017-09-26T05:28:54.984Z,97442.75
2017-09-26T05:31:22.555Z,97448.31
2017-09-26T05:33:50.153Z,97454.38
2017-09-26T05:36:17.761Z,97462.09
2017-09-26T05:38:45.702Z,97458.73
2017-09-26T05:41:13.318Z,97470.15
2017-09-26T05:43:40.953Z,97468.23
2017-09-26T05:46:11.530Z,97469.59
2017-09-26T05:48:39.590Z,97465.47
2017-09-26T05:51:07.596Z,97471.42
2017-09-26T05:53:35.159Z,97474.35
2017-09-26T05:56:04.004Z,97477.78
2017-09-26T05:58:31.582Z,97483.23
2017-09-26T06:00:59.191Z,97481.11
2017-09-26T06:03:26.780Z,97473.19
2017-09-26T06:05:55.264Z,97467.00
2017-09-26T06:08:24.269Z,97481.41
2017-09-26T06:10:52.283Z,97480.88
2017-09-26T06:13:19.862Z,97477.62
2017-09-26T06:15:47.851Z,97472.63
2017-09-26T06:18:16.132Z,97479.88
2017-09-26T06:20:51.046Z,97487.44
2017-09-26T06:23:18.641Z,97483.20
2017-09-26T06:25:46.740Z,97492.16
2017-09-26T06:28:14.893Z,97491.83
2017-09-26T06:30:43.274Z,97499.55
2017-09-26T06:33:10.886Z,97489.53
2017-09-26T06:35:38.609Z,97489.69
2017-09-26T06:38:07.592Z,97502.10
2017-09-26T06:40:35.181Z,97495.41
2017-09-26T06:43:03.196Z,97497.97
2017-09-26T06:45:32.211Z,97499.63
2017-09-26T06:48:00.943Z,97498.95
2017-09-26T06:50:29.039Z,97502.45
2017-09-26T06:52:57.007Z,97504.27
2017-09-26T06:55:26.229Z,97500.20
2017-09-26T06:57:54.245Z,97498.56
2017-09-26T07:00:22.161Z,97505.78
2017-09-26T07:02:49.766Z,97513.13
2017-09-26T07:05:17.731Z,97504.45
2017-09-26T07:07:45.634Z,97506.30
2017-09-26T07:10:13.626Z,97506.78
2017-09-26T07:12:41.217Z,97511.10
2017-09-26T07:15:09.209Z,97515.86
2017-09-26T07:17:37.139Z,97529.09
2017-09-26T07:20:06.259Z,97523.31
2017-09-26T07:22:33.867Z,97522.53
2017-09-26T07:25:01.441Z,97517.60
2017-09-26T07:27:29.053Z,97525.32
2017-09-26T07:29:56.650Z,97525.41
2017-09-26T07:32:24.291Z,97520.88
2017-09-26T07:34:52.693Z,97523.52
2017-09-26T07:37:20.583Z,97525.36
2017-09-26T07:39:49.701Z,97525.89
2017-09-26T07:42:17.935Z,97529.40
2017-09-26T07:44:46.019Z,97529.13
2017-09-26T07:47:14.669Z,97526.79
2017-09-26T07:49:42.287Z,97521.08
2017-09-26T07:52:09.850Z,97521.75
2017-09-26T07:54:37.602Z,97514.34
2017-09-26T07:57:05.607Z,97512.47
2017-09-26T07:59:33.439Z,97516.01
2017-09-26T08:02:02.345Z,97519.55
2017-09-26T08:04:31.173Z,97523.56
2017-09-26T08:06:59.676Z,97525.38
2017-09-26T08:09:27.991Z,97525.12
2017-09-26T08:11:55.624Z,97523.16
2017-09-26T08:14:23.201Z,97524.05
2017-09-26T08:16:50.823Z,97522.82
2017-09-26T08:19:18.413Z,97530.19
2017-09-26T08:21:46.349Z,97523.55
2017-09-26T08:24:13.937Z,97525.30
2017-09-26T08:26:41.517Z,97530.85
2017-09-26T08:29:09.108Z,97532.63
2017-09-26T08:31:37.394Z,97531.36
2017-09-26T08:34:05.042Z,97524.28
2017-09-26T08:36:33.591Z,97523.13
2017-09-26T08:39:01.193Z,97527.08
2017-09-26T08:41:28.801Z,97522.94
2017-09-26T08:43:56.417Z,97527.73
2017-09-26T08:46:24.264Z,97530.75
2017-09-26T08:48:54.177Z,97526.98
2017-09-26T08:51:23.009Z,97525.77
2017-09-26T08:53:50.639Z,97528.41
2017-09-26T08:56:19.901Z,97531.86
2017-09-26T08:58:48.231Z,97527.55
2017-09-26T09:01:16.446Z,97539.04
2017-09-26T09:03:44.099Z,97537.82
2017-09-26T09:06:12.046Z,97532.80
2017-09-26T09:08:39.643Z,97534.93
2017-09-26T09:11:07.608Z,97527.30
2017-09-26T09:13:35.213Z,97536.59
2017-09-26T09:16:02.788Z,97532.02
2017-09-26T09:18:30.825Z,97537.27
2017-09-26T09:20:58.409Z,97532.25
2017-09-26T09:23:27.691Z,97535.33
2017-09-26T09:25:55.322Z,97542.17
2017-09-26T09:28:22.947Z,97542.16
2017-09-26T09:30:51.846Z,97543.47
2017-09-26T09:33:20.693Z,97535.88
2017-09-26T09:35:48.346Z,97534.27
2017-09-26T09:38:16.000Z,97533.02
2017-09-26T09:40:43.776Z,97539.36
2017-09-26T09:43:11.376Z,97536.02
2017-09-26T09:45:38.966Z,97536.09
2017-09-26T09:48:06.870Z,97535.22
2017-09-26T09:50:35.052Z,97532.70
2017-09-26T09:53:02.632Z,97540.04
2017-09-26T09:55:30.524Z,97546.43
2017-09-26T09:57:58.133Z,97537.08
2017-09-26T10:00:25.723Z,97540.45
2017-09-26T10:02:53.354Z,97540.47
2017-09-26T10:05:20.932Z,97537.89
2017-09-26T10:07:48.533Z,97546.84
2017-09-26T10:10:16.493Z,97538.78
2017-09-26T10:12:44.459Z,97534.09
2017-09-26T10:15:12.374Z,97531.55
2017-09-26T10:17:41.209Z,97538.39
2017-09-26T10:20:09.197Z,97536.33
2017-09-26T10:22:36.761Z,97534.70
2017-09-26T10:25:04.385Z,97542.80
2017-09-26T10:27:32.387Z,97539.03
2017-09-26T10:30:00.010Z,97539.11
2017-09-26T10:32:27.616Z,97534.48
2017-09-26T10:34:55.251Z,97530.65
2017-09-26T10:37:23.759Z,97534.52
2017-09-26T10:39:51.518Z,97529.47
2017-09-26T10:42:19.176Z,97540.56
2017-09-26T10:44:46.790Z,97539.72
2017-09-26T10:47:14.391Z,97541.03
2017-09-26T10:49:41.982Z,97535.47
2017-09-26T10:52:09.650Z,97530.38
2017-09-26T10:54:37.231Z,97522.72
2017-09-26T10:57:05.180Z,97516.77
2017-09-26T10:59:32.852Z,97515.52
2017-09-26T11:02:00.842Z,97513.38
2017-09-26T11:04:28.488Z,97504.41
2017-09-26T11:06:56.073Z,97506.53
2017-09-26T11:09:23.718Z,97509.92
2017-09-26T11:11:52.764Z,97510.76
2017-09-26T11:14:20.365Z,97511.18
2017-09-26T11:16:47.980Z,97508.19
2017-09-26T11:19:15.888Z,97509.47
2017-09-26T11:21:44.106Z,97499.22
2017-09-26T11:24:11.721Z,97496.61
2017-09-26T11:26:39.329Z,97496.19
2017-09-26T11:29:06.930Z,97497.89
2017-09-26T11:31:35.349Z,97498.73
2017-09-26T11:34:03.150Z,97502.09
2017-09-26T11:36:30.947Z,97500.34
2017-09-26T11:38:58.557Z,97489.59
2017-09-26T11:41:26.148Z,97491.17
2017-09-26T11:43:53.851Z,97487.68
2017-09-26T11:46:21.397Z,97481.27
2017-09-26T11:48:48.994Z,97481.67
2017-09-26T11:51:17.863Z,97472.69
2017-09-26T11:53:45.488Z,97478.27
2017-09-26T11:56:13.198Z,97478.23
2017-09-26T11:58:40.816Z,97470.10
2017-09-26T12:01:08.407Z,97472.17
2017-09-26T12:03:36.030Z,97466.61
2017-09-26T12:06:03.686Z,97465.27
2017-09-26T12:08:31.289Z,97464.34
2017-09-26T12:10:59.088Z,97460.12
2017-09-26T12:13:32.238Z,97463.97
2017-09-26T12:15:59.850Z,97459.31
2017-09-26T12:18:27.426Z,97464.42
2017-09-26T12:20:56.266Z,97452.92
2017-09-26T12:23:24.278Z,97457.57
2017-09-26T12:25:51.865Z,97452.39
2017-09-26T12:28:19.474Z,97452.41
2017-09-26T12:30:47.057Z,97456.59
2017-09-26T12:33:14.653Z,97451.86
2017-09-26T12:35:42.229Z,97445.86
2017-09-26T12:38:10.770Z,97447.09
2017-09-26T12:40:38.361Z,97449.16
2017-09-26T12:43:06.351Z,97442.68
2017-09-26T12:45:33.943Z,97439.22
2017-09-26T12:48:01.483Z,97438.67
2017-09-26T12:50:30.376Z,97440.69
2017-09-26T12:52:58.511Z,97437.09
2017-09-26T12:55:26.126Z,97432.80
2017-09-26T12:57:53.765Z,97435.38
2017-09-26T13:00:22.115Z,97430.56
2017-09-26T13:02:50.502Z,97435.08
2017-09-26T13:05:19.540Z,97431.92
2017-09-26T13:07:47.124Z,97425.75
2017-09-26T13:10:15.022Z,97430.70
2017-09-26T13:12:44.003Z,97427.44
2017-09-26T13:15:12.206Z,97429.98
2017-09-26T13:17:41.213Z,97431.59
2017-09-26T13:20:08.843Z,97434.05
2017-09-26T13:22:36.493Z,97435.77
2017-09-26T13:25:04.072Z,97438.34
2017-09-26T13:27:31.714Z,97433.19
2017-09-26T13:29:59.325Z,97432.34
2017-09-26T13:32:26.917Z,97425.00
2017-09-26T13:34:54.516Z,97429.20
2017-09-26T13:37:22.189Z,97428.20
2017-09-26T13:39:51.233Z,97432.47
2017-09-26T13:42:19.998Z,97424.84
2017-09-26T13:44:47.597Z,97423.15
2017-09-26T13:47:15.214Z,97428.30
2017-09-26T13:49:43.146Z,97420.09
2017-09-26T13:52:12.010Z,97430.81
2017-09-26T13:54:39.690Z,97429.70
2017-09-26T13:57:07.291Z,97427.78
2017-09-26T13:59:35.507Z,97422.48
2017-09-26T14:02:03.085Z,97421.25
2017-09-26T14:04:31.114Z,97422.91
2017-09-26T14:06:58.697Z,97419.78
2017-09-26T14:09:27.783Z,97421.98
2017-09-26T14:11:55.374Z,97413.25
2017-09-26T14:14:22.972Z,97415.60
2017-09-26T14:16:50.586Z,97426.52
2017-09-26T14:19:19.054Z,97420.58
2017-09-26T14:21:47.037Z,97422.95
2017-09-26T14:24:15.923Z,97420.14
2017-09-26T14:26:44.247Z,97416.59
2017-09-26T14:29:11.816Z,97416.42
2017-09-26T14:31:40.719Z,97413.95
2017-09-26T14:34:08.315Z,97419.64
2017-09-26T14:36:35.903Z,97416.38
2017-09-26T14:39:03.505Z,97419.00
2017-09-26T14:41:31.106Z,97419.18
2017-09-26T14:43:59.243Z,97413.57
2017-09-26T14:46:29.332Z,97412.31
2017-09-26T14:48:58.344Z,97410.08
2017-09-26T14:51:25.915Z,97415.47
2017-09-26T14:53:53.943Z,97412.16
2017-09-26T14:56:22.079Z,97415.27
2017-09-26T14:58:49.664Z,97415.47
2017-09-26T15:01:17.283Z,97425.50
2017-09-26T15:03:46.361Z,97422.89
2017-09-26T15:06:13.940Z,97416.68
2017-09-26T15:08:41.545Z,97418.97
2017-09-26T15:11:09.134Z,97416.86
2017-09-26T15:13:36.726Z,97414.61
2017-09-26T15:16:04.312Z,97408.47
2017-09-26T15:18:32.000Z,97402.94
2017-09-26T15:20:59.858Z,97412.45
2017-09-26T15:23:27.760Z,97406.41
2017-09-26T15:25:55.361Z,97420.23
2017-09-26T15:28:23.639Z,97410.33
2017-09-26T15:30:51.779Z,97417.06
2017-09-26T15:33:19.351Z,97417.37
2017-09-26T15:35:47.389Z,97414.15
2017-09-26T15:38:14.945Z,97410.45
2017-09-26T15:40:42.905Z,97413.28
2017-09-26T15:43:10.506Z,97409.98
2017-09-26T15:45:38.850Z,97407.96
2017-09-26T15:48:06.545Z,97406.73
2017-09-26T15:50:34.138Z,97414.58
2017-09-26T15:53:01.731Z,97410.86
2017-09-26T15:55:29.334Z,97412.30
2017-09-26T15:57:58.129Z,97416.27
2017-09-26T16:00:25.672Z,97420.27
2017-09-26T16:02:53.246Z,97420.77
2017-09-26T16:05:20.956Z,97417.42
2017-09-26T16:07:48.545Z,97419.59
2017-09-26T16:10:18.902Z,97418.41
2017-09-26T16:12:46.514Z,97422.39
2017-09-26T16:15:14.104Z,97440.48
2017-09-26T16:17:41.698Z,97424.30
2017-09-26T16:20:09.258Z,97425.24
2017-09-26T16:22:36.906Z,97428.73
2017-09-26T16:25:04.509Z,97431.42
2017-09-26T16:27:32.612Z,97431.48
2017-09-26T16:30:00.223Z,97429.00
2017-09-26T16:32:28.126Z,97436.39
2017-09-26T16:34:57.242Z,97443.72
2017-09-26T16:37:24.834Z,97448.11
2017-09-26T16:39:52.480Z,97447.33
2017-09-26T16:42:20.811Z,97450.42
2017-09-26T16:44:48.488Z,97452.20
2017-09-26T16:47:16.243Z,97453.13
2017-09-26T16:49:44.305Z,97446.78
2017-09-26T16:52:11.881Z,97448.16
2017-09-26T16:54:39.476Z,97448.19
2017-09-26T16:57:07.107Z,97455.09
2017-09-26T16:59:34.686Z,97454.70
2017-09-26T17:02:02.307Z,97457.73
2017-09-26T17:04:29.885Z,97460.36
2017-09-26T17:06:57.453Z,97462.11
2017-09-26T17:09:25.838Z,97460.45
2017-09-26T17:11:54.449Z,97466.94
2017-09-26T17:14:23.443Z,97472.95
2017-09-26T17:16:51.034Z,97472.59
2017-09-26T17:19:18.628Z,97476.88
2017-09-26T17:21:47.562Z,97474.36
2017-09-26T17:26:49.072Z,97481.20
2017-09-26T17:29:16.671Z,97490.59
2017-09-26T17:31:44.260Z,97490.22
2017-09-26T17:34:11.859Z,97490.66
2017-09-26T17:36:39.441Z,97493.67
2017-09-26T17:39:07.244Z,97495.80
2017-09-26T17:41:34.813Z,97502.22
2017-09-26T17:44:03.692Z,97503.94
2017-09-26T17:46:31.427Z,97503.95
2017-09-26T17:48:59.017Z,97508.25
2017-09-26T17:51:26.625Z,97507.41
2017-09-26T17:53:54.187Z,97516.35
2017-09-26T17:56:21.767Z,97520.20
2017-09-26T17:58:49.344Z,97517.64
2017-09-26T18:01:17.395Z,97518.08
2017-09-26T18:03:45.305Z,97515.92
2017-09-26T18:06:12.906Z,97520.18
2017-09-26T18:08:41.444Z,97522.27
2017-09-26T18:11:09.059Z,97523.98
2017-09-26T18:13:36.679Z,97525.67
2017-09-26T18:16:04.281Z,97533.76
2017-09-26T18:18:34.528Z,97536.75
2017-09-26T18:21:02.154Z,97532.91
2017-09-26T18:23:30.998Z,97537.58
2017-09-26T18:26:02.888Z,97537.13
2017-09-26T18:28:30.499Z,97541.38
2017-09-26T18:30:58.583Z,97542.64
2017-09-26T18:33:26.630Z,97540.48
2017-09-26T18:35:54.573Z,97541.31
2017-09-26T18:38:22.187Z,97541.28
2017-09-26T18:40:49.816Z,97543.40
2017-09-26T18:43:17.457Z,97543.83
2017-09-26T18:45:45.956Z,97550.62
2017-09-26T18:48:13.652Z,97550.62
2017-09-26T18:50:41.253Z,97550.15
2017-09-26T18:53:08.840Z,97550.58
2017-09-26T18:55:38.004Z,97554.41
2017-09-26T18:58:05.957Z,97556.94
2017-09-26T19:00:34.022Z,97556.50
2017-09-26T19:03:02.571Z,97556.50
2017-09-26T19:05:30.216Z,97560.66
2017-09-26T19:07:57.820Z,97552.99
2017-09-26T19:10:26.740Z,97555.92
2017-09-26T19:12:54.346Z,97560.13
2017-09-26T19:15:21.937Z,97560.09
2017-09-26T19:17:49.551Z,97558.34
2017-09-26T19:20:17.154Z,97560.45
2017-09-26T19:22:45.333Z,97559.98
2017-09-26T19:25:14.747Z,97558.28
2017-09-26T19:27:42.356Z,97560.77
2017-09-26T19:30:10.848Z,97562.44
2017-09-26T19:32:39.528Z,97562.84
2017-09-26T19:35:08.086Z,97558.55
2017-09-26T19:37:35.880Z,97559.80
2017-09-26T19:40:03.484Z,97561.04
2017-09-26T19:42:31.459Z,97570.83
2017-09-26T19:44:59.091Z,97564.47
2017-09-26T19:47:26.699Z,97555.50
2017-09-26T19:49:54.446Z,97558.85
2017-09-26T19:52:23.096Z,97559.73
2017-09-26T19:54:50.727Z,97559.31
2017-09-26T19:57:20.395Z,97572.03
2017-09-26T19:59:48.130Z,97569.87
2017-09-26T20:02:16.913Z,97573.22
2017-09-26T20:04:44.526Z,97574.88
2017-09-26T20:07:13.619Z,97576.11
2017-09-26T20:09:41.430Z,97576.08
2017-09-26T20:12:09.062Z,97576.47
2017-09-26T20:14:36.667Z,97576.81
2017-09-26T20:17:04.310Z,97577.63
2017-09-26T20:19:31.901Z,97579.26
2017-09-26T20:21:59.486Z,97580.52
2017-09-26T20:24:27.123Z,97580.44
2017-09-26T20:26:55.198Z,97577.44
2017-09-26T20:29:22.816Z,97579.94
2017-09-26T20:31:50.420Z,97580.77
2017-09-26T20:34:18.037Z,97579.47
2017-09-26T20:36:46.113Z,97581.56
2017-09-26T20:39:13.769Z,97584.48
2017-09-26T20:41:41.387Z,97588.27
2017-09-26T20:44:09.001Z,97587.38
2017-09-26T20:46:36.752Z,97584.36
2017-09-26T20:49:05.799Z,97597.44
2017-09-26T20:51:33.419Z,97588.04
2017-09-26T20:54:01.364Z,97597.31
2017-09-26T20:56:28.979Z,97592.60
2017-09-26T20:58:56.593Z,97590.02
2017-09-26T21:01:24.598Z,97590.83
2017-09-26T21:03:52.326Z,97594.59
2017-09-26T21:06:19.945Z,97591.59
2017-09-26T21:08:47.538Z,97591.56
2017-09-26T21:11:15.114Z,97596.18
2017-09-26T21:13:42.708Z,97598.33
2017-09-26T21:16:10.308Z,97598.31
2017-09-26T21:18:37.923Z,97597.45
2017-09-26T21:21:05.557Z,97591.92
2017-09-26T21:23:33.168Z,97593.07
2017-09-26T21:26:00.791Z,97592.17
2017-09-26T21:28:28.404Z,97586.19
2017-09-26T21:30:56.354Z,97592.91
2017-09-26T21:33:23.956Z,97592.39
2017-09-26T21:35:51.567Z,97590.66
2017-09-26T21:38:20.591Z,97599.03
2017-09-26T21:40:48.660Z,97602.56
2017-09-26T21:43:17.679Z,97598.77
2017-09-26T21:45:45.283Z,97600.77
2017-09-26T21:48:13.229Z,97598.30
2017-09-26T21:50:40.940Z,97604.32
2017-09-26T21:53:10.628Z,97602.66
2017-09-26T21:55:38.390Z,97598.05
2017-09-26T21:58:05.974Z,97596.80
2017-09-26T22:00:34.223Z,97597.64
2017-09-26T22:03:02.175Z,97603.09
2017-09-26T22:05:29.771Z,97604.30
2017-09-26T22:07:57.390Z,97607.20
2017-09-26T22:10:24.983Z,97609.30
2017-09-26T22:12:52.618Z,97608.39
2017-09-26T22:15:21.454Z,97602.44
2017-09-26T22:17:51.501Z,97604.95
2017-09-26T22:20:20.564Z,97605.84
2017-09-26T22:22:48.253Z,97604.98
2017-09-26T22:25:16.467Z,97604.07
2017-09-26T22:27:44.396Z,97599.33
2017-09-26T22:30:11.975Z,97596.27
2017-09-26T22:32:39.583Z,97598.73
2017-09-26T22:35:07.156Z,97595.27
2017-09-26T22:37:34.746Z,97596.08
2017-09-26T22:40:02.579Z,97594.80
2017-09-26T22:42:30.989Z,97597.31
2017-09-26T22:44:58.563Z,97594.77
2017-09-26T22:47:26.852Z,97599.01
2017-09-26T22:49:54.447Z,97594.31
2017-09-26T22:52:22.033Z,97599.77
2017-09-26T22:54:49.650Z,97597.98
2017-09-26T22:57:17.240Z,97591.56
2017-09-26T22:59:45.274Z,97587.13
2017-09-26T23:02:12.863Z,97590.53
2017-09-26T23:04:40.437Z,97596.91
2017-09-26T23:07:09.488Z,97593.84
2017-09-26T23:09:37.631Z,97597.64
2017-09-26T23:12:05.553Z,97596.31
2017-09-26T23:14:34.895Z,97597.99
2017-09-26T23:17:02.506Z,97598.75
2017-09-26T23:19:30.089Z,97601.19
2017-09-26T23:21:58.021Z,97602.81
2017-09-26T23:24:26.029Z,97606.59
2017-09-26T23:26:53.606Z,97607.37
2017-09-26T23:29:21.238Z,97601.73
2017-09-26T23:31:48.856Z,97607.97
2017-09-26T23:34:16.833Z,97604.57
2017-09-26T23:36:44.409Z,97608.78
2017-09-26T23:39:11.997Z,97607.05
2017-09-26T23:41:39.562Z,97617.50
2017-09-26T23:44:08.321Z,97614.53
2017-09-26T23:46:36.269Z,97612.83
2017-09-26T23:49:04.236Z,97611.53
2017-09-26T23:51:31.836Z,97619.95
2017-09-26T23:53:59.515Z,97616.12
2017-09-26T23:56:27.573Z,97616.55
2017-09-26T23:58:55.546Z,97622.86
